Etusivu
METAR-TAF:

METAR-TAF

Lentoasemat :

Jönköping, Ruotsi

Leveyspiiri: 57-46N, Pituuspiiri: 014-05E, korkeus merenpinnasta: 226 m

Tämänhetkinen sää

Tämä raportti tehtiin 49 minuuttia sitten, kello 10.50 UTC
Tuuli 6 kn idästä
Lämpötila 21°C
Kosteus 69%
Ilmanpaine 1009 hPa
Näkyvyys 10 km tai enemmän
Muutamia pilviä 8000 ft:n korkeudessa, Kasvava cumulus-pilvi.

METAR: ESGJ 221050Z 08006KT 9999 FEW080TCU 21/15 Q1009

Aika: 13:39 (11:39 UTC)

Sääennuste

Tämä raportti tehtiin 3 tuntia ja 9 minuuttia sitten, kello 08.30 UTC
Ennuste voimassa 22. päivästä klo 09 UTC - 22. päivään klo 18 UTC
Tuuli 2 kn eri suunnista
Näkyvyys 10 km tai enemmän
ei pilviä alle 1500 m:ssä eikä cumulonimbus-pilviä
Ajoittain
22. päivästä klo 11 UTC - 22. päivään klo 18 UTC
Hajonneita pilviä 5000 ft:n korkeudessa, Cumulonimbus.
ukkosmyrsky, vesikuuroja

TAF: ESGJ 220830Z 2209/2218 VRB02KT CAVOK TEMPO 2211/2218 TS SHRA BKN050CB

Säähavainnot ja -ennusteet yli 4000 lentoasemalta (METAR- ja TAF-raportit).

Käytössä olevat sääasemat on merkitty karttaan keltaisilla ja punaisilla pisteillä.

Aseta hiiri pisteen päälle nähdäksesi sääaseman nimen.

Klikkaa sitten nähdäksesi säähavainnot ja -ennusteet.

Kartan vaihtaminen: klikkaa mustalla rastilla varustettuja vihreitä pisteitä, niin voit zoomata sisään; viivalla varustettua vihreää pistettä, niin voit zoomata ulos tai vihreitä nuolia, niin pääset viereisille kartoille.


METAR-TAF: